Time;durP1;ratioP1;P1;durP2;ratioP2;P2;SDS_P1;SDS_P2;PMS_P1;PMS_P2;Temp;Humidity;BMP_temperature;BMP_pressure;BME280_temperature;BME280_humidity;BME280_pressure;Samples;Min_cycle;Max_cycle;Signal;HPM_P1;HPM_P2
2022/10/24 00:00:52;;;;;;;5.63;2.30;;;14.60;90.80;;;;;;5014525;28;20381;-52
2022/10/24 00:03:18;;;;;;;7.03;2.72;;;14.60;90.90;;;;;;5034740;28;20086;-49
2022/10/24 00:05:46;;;;;;;5.50;3.17;;;14.60;90.90;;;;;;5051160;28;20466;-48
2022/10/24 00:08:15;;;;;;;9.40;2.90;;;14.50;90.80;;;;;;5030847;28;20067;-52
2022/10/24 00:10:44;;;;;;;8.48;3.13;;;14.50;90.80;;;;;;5001194;28;20052;-48
2022/10/24 00:13:13;;;;;;;7.82;3.33;;;14.50;90.80;;;;;;5034869;28;20033;-55
2022/10/24 00:15:45;;;;;;;5.22;2.90;;;14.50;90.80;;;;;;5030821;28;20029;-55
2022/10/24 00:18:12;;;;;;;4.57;2.50;;;14.40;90.80;;;;;;5033077;28;20687;-54
2022/10/24 00:20:39;;;;;;;5.85;2.63;;;14.40;90.90;;;;;;5049244;28;20223;-51
2022/10/24 00:23:07;;;;;;;6.50;2.70;;;14.40;90.90;;;;;;5034982;28;20425;-52
2022/10/24 00:25:32;;;;;;;6.15;3.00;;;14.40;90.90;;;;;;5050731;28;20043;-51
2022/10/24 00:27:59;;;;;;;6.88;2.92;;;14.40;90.90;;;;;;5050921;28;20037;-50
2022/10/24 00:30:26;;;;;;;8.52;3.20;;;14.40;90.80;;;;;;5052141;28;20022;-53
2022/10/24 00:32:52;;;;;;;5.55;2.80;;;14.40;90.90;;;;;;5049025;28;20087;-48
2022/10/24 00:35:18;;;;;;;10.25;4.25;;;14.40;90.90;;;;;;5052380;28;20029;-50
2022/10/24 00:37:45;;;;;;;6.63;3.50;;;14.40;90.80;;;;;;5046907;28;20107;-51
2022/10/24 00:40:16;;;;;;;8.27;2.90;;;14.40;90.90;;;;;;5034126;28;20037;-48
2022/10/24 00:42:42;;;;;;;10.50;3.47;;;14.40;90.80;;;;;;5030031;28;20031;-50
2022/10/24 00:45:46;;;;;;;5.55;2.92;;;14.40;90.70;;;;;;5051269;28;20084;-50
2022/10/24 00:48:31;;;;;;;7.28;2.88;;;14.40;90.60;;;;;;5046710;28;20057;-51
2022/10/24 00:51:09;;;;;;;9.25;3.22;;;14.50;90.30;;;;;;5032394;28;20033;-52
2022/10/24 00:53:43;;;;;;;7.25;2.28;;;14.50;90.30;;;;;;5030578;28;20454;-50
2022/10/24 00:56:11;;;;;;;6.28;2.30;;;14.50;90.30;;;;;;5031314;28;20034;-48
2022/10/24 00:58:41;;;;;;;7.47;2.38;;;14.50;90.10;;;;;;5030494;28;20390;-51
2022/10/24 01:01:11;;;;;;;6.22;3.47;;;14.50;90.00;;;;;;5031850;28;20136;-50
2022/10/24 01:03:41;;;;;;;7.22;2.20;;;14.50;89.80;;;;;;5031222;28;20113;-49
2022/10/24 01:06:26;;;;;;;4.97;2.30;;;14.50;89.90;;;;;;5032139;28;20104;-50
2022/10/24 01:09:13;;;;;;;7.45;2.50;;;14.50;89.80;;;;;;5026987;28;20097;-51
2022/10/24 01:12:03;;;;;;;8.65;2.45;;;14.60;89.80;;;;;;5013940;28;20500;-51
2022/10/24 01:14:59;;;;;;;5.43;2.35;;;14.60;89.90;;;;;;5012637;28;20033;-53
2022/10/24 01:17:53;;;;;;;5.78;2.58;;;14.60;89.80;;;;;;5031965;28;20454;-49
2022/10/24 01:20:36;;;;;;;7.25;2.50;;;14.60;89.80;;;;;;5032073;28;20503;-51
2022/10/24 01:23:26;;;;;;;3.70;2.45;;;14.60;89.70;;;;;;5030229;28;20040;-54
2022/10/24 01:25:57;;;;;;;4.80;2.00;;;14.70;89.50;;;;;;5014381;28;20513;-48
2022/10/24 01:28:48;;;;;;;6.78;2.47;;;14.70;89.60;;;;;;5029458;28;20034;-51
2022/10/24 01:31:33;;;;;;;5.82;2.55;;;14.70;89.50;;;;;;5029324;28;20108;-53
2022/10/24 01:34:08;;;;;;;7.78;2.42;;;14.80;89.40;;;;;;5014911;28;20439;-50
2022/10/24 01:36:46;;;;;;;5.53;2.05;;;14.90;89.20;;;;;;5020648;28;20046;-54
2022/10/24 01:39:18;;;;;;;7.78;2.05;;;14.80;89.00;;;;;;5015702;28;20870;-53
2022/10/24 01:41:47;;;;;;;8.35;2.70;;;14.80;89.10;;;;;;5031210;28;20068;-51
2022/10/24 01:44:36;;;;;;;5.18;2.20;;;14.80;89.20;;;;;;5032573;28;20482;-49
2022/10/24 01:47:08;;;;;;;;;;;14.70;89.20;;;;;;5034844;28;20041;-49
2022/10/24 01:49:41;;;;;;;5.43;2.58;;;14.70;89.30;;;;;;5024391;28;19917;-50
2022/10/24 01:52:15;;;;;;;6.90;2.67;;;14.70;89.40;;;;;;5017127;28;20064;-52
2022/10/24 01:54:43;;;;;;;6.10;2.70;;;14.70;89.30;;;;;;5035625;28;20025;-49
2022/10/24 01:57:12;;;;;;;8.00;2.50;;;14.60;89.40;;;;;;5034647;28;20112;-52
2022/10/24 01:59:46;;;;;;;4.97;2.58;;;14.60;89.40;;;;;;5033340;28;20466;-48
2022/10/24 02:02:41;;;;;;;8.15;3.20;;;14.60;89.50;;;;;;5033981;28;20359;-49
2022/10/24 02:05:19;;;;;;;7.50;2.65;;;14.50;89.60;;;;;;5033262;28;20191;-51
2022/10/24 02:07:49;;;;;;;10.55;3.20;;;14.50;89.70;;;;;;5034874;28;20037;-49
2022/10/24 02:10:25;;;;;;;5.03;2.38;;;14.40;89.70;;;;;;5034148;28;20044;-50
2022/10/24 02:12:56;;;;;;;8.15;2.65;;;14.40;89.80;;;;;;5033311;28;20021;-51
2022/10/24 02:15:28;;;;;;;12.73;4.50;;;14.40;89.90;;;;;;5033339;28;20427;-50
2022/10/24 02:17:56;;;;;;;5.53;2.55;;;14.30;89.90;;;;;;5035116;28;20026;-48
2022/10/24 02:20:29;;;;;;;8.02;2.72;;;14.20;90.00;;;;;;5033394;28;20443;-53
2022/10/24 02:23:32;;;;;;;14.73;3.38;;;14.20;90.20;;;;;;5034889;28;20420;-53
2022/10/24 02:26:02;;;;;;;6.88;2.58;;;14.20;90.30;;;;;;5032734;28;20057;-53
2022/10/24 02:28:36;;;;;;;7.07;2.47;;;14.20;90.20;;;;;;5034011;28;20029;-52
2022/10/24 02:31:15;;;;;;;7.13;2.85;;;14.20;90.40;;;;;;5033099;28;20078;-49
2022/10/24 02:33:46;;;;;;;4.45;2.35;;;14.20;90.40;;;;;;5033980;28;20060;-50
2022/10/24 02:36:18;;;;;;;7.45;2.75;;;14.20;90.40;;;;;;5034322;28;20038;-51
2022/10/24 02:38:49;;;;;;;7.50;2.10;;;14.20;90.30;;;;;;5031331;28;20354;-51
2022/10/24 02:41:21;;;;;;;6.50;2.65;;;14.20;90.40;;;;;;5031498;28;20033;-51
2022/10/24 02:43:50;;;;;;;4.82;2.10;;;14.20;90.40;;;;;;5015359;28;20046;-48
2022/10/24 02:46:19;;;;;;;12.90;2.35;;;14.20;90.50;;;;;;5032597;28;20112;-49
2022/10/24 02:48:49;;;;;;;9.90;3.10;;;14.20;90.50;;;;;;5047981;28;20090;-50
2022/10/24 02:51:19;;;;;;;6.95;2.92;;;14.20;90.70;;;;;;5052853;28;20028;-49
2022/10/24 02:53:46;;;;;;;6.82;2.47;;;14.20;90.60;;;;;;5053514;28;20108;-50
2022/10/24 02:56:15;;;;;;;5.00;2.58;;;14.20;90.70;;;;;;5052076;28;20025;-49
2022/10/24 02:58:42;;;;;;;7.47;3.25;;;14.30;90.80;;;;;;5054135;28;20462;-52
2022/10/24 03:01:08;;;;;;;5.95;3.22;;;14.30;90.60;;;;;;5048454;28;20049;-51
2022/10/24 03:03:34;;;;;;;5.88;2.70;;;14.30;90.70;;;;;;5036403;28;20040;-49
2022/10/24 03:06:01;;;;;;;8.50;3.45;;;14.30;90.80;;;;;;5047638;28;20016;-49
2022/10/24 03:08:27;;;;;;;6.82;2.83;;;14.40;90.80;;;;;;5053329;28;20037;-52
2022/10/24 03:10:53;;;;;;;8.10;2.90;;;14.40;90.70;;;;;;5052556;28;20033;-52
2022/10/24 03:13:21;;;;;;;9.13;2.88;;;14.40;90.80;;;;;;5036488;28;20475;-50
2022/10/24 03:15:48;;;;;;;6.32;3.20;;;14.50;90.60;;;;;;5051318;28;20031;-53
2022/10/24 03:18:15;;;;;;;9.85;4.20;;;14.40;90.60;;;;;;5033749;28;20033;-54
2022/10/24 03:20:41;;;;;;;7.03;3.35;;;14.50;90.50;;;;;;5016519;28;20387;-47
2022/10/24 03:23:08;;;;;;;9.43;3.75;;;14.50;90.50;;;;;;5031440;28;20132;-48
2022/10/24 03:25:34;;;;;;;7.03;3.33;;;14.50;90.50;;;;;;5052528;28;20021;-50
2022/10/24 03:28:01;;;;;;;6.00;3.35;;;14.50;90.50;;;;;;5048603;28;20025;-50
2022/10/24 03:30:30;;;;;;;8.00;3.53;;;14.60;90.60;;;;;;5053352;28;20079;-51
2022/10/24 03:32:57;;;;;;;7.47;3.42;;;14.60;90.50;;;;;;5052902;28;20315;-52
2022/10/24 03:35:24;;;;;;;7.55;3.05;;;14.60;90.60;;;;;;5052531;28;20108;-50
2022/10/24 03:37:50;;;;;;;5.70;3.78;;;14.60;90.50;;;;;;5052087;28;20028;-51
2022/10/24 03:40:17;;;;;;;6.43;3.15;;;14.60;90.50;;;;;;5053300;28;20028;-49
2022/10/24 03:42:47;;;;;;;4.88;3.15;;;14.50;90.50;;;;;;5052937;28;20021;-52
2022/10/24 03:45:14;;;;;;;5.07;3.30;;;14.50;90.60;;;;;;5051940;28;20029;-51
2022/10/24 03:47:41;;;;;;;8.45;4.07;;;14.50;90.60;;;;;;5031325;28;20119;-49
2022/10/24 03:50:08;;;;;;;6.35;3.70;;;14.60;90.50;;;;;;5031159;28;20084;-49
2022/10/24 03:52:34;;;;;;;9.90;3.25;;;14.60;90.50;;;;;;5031976;28;20022;-53
2022/10/24 03:55:02;;;;;;;4.82;3.10;;;14.50;90.40;;;;;;5032174;28;20033;-55
2022/10/24 03:57:29;;;;;;;9.48;3.53;;;14.60;90.50;;;;;;5030820;28;20830;-50
2022/10/24 03:59:56;;;;;;;5.15;2.47;;;14.60;90.50;;;;;;5032369;28;20362;-48
2022/10/24 04:02:23;;;;;;;9.35;3.50;;;14.60;90.40;;;;;;5029442;28;20359;-49
2022/10/24 04:04:49;;;;;;;11.25;3.30;;;14.50;90.20;;;;;;5031463;28;20060;-47
2022/10/24 04:07:16;;;;;;;10.20;3.97;;;14.50;90.20;;;;;;5032169;28;20030;-48
2022/10/24 04:09:43;;;;;;;6.50;2.70;;;14.50;90.20;;;;;;5032100;28;20454;-49
2022/10/24 04:12:10;;;;;;;7.43;2.83;;;14.50;90.20;;;;;;5031407;28;20588;-49
2022/10/24 04:14:37;;;;;;;7.75;3.42;;;14.50;90.10;;;;;;5031559;28;20461;-53
2022/10/24 04:17:06;;;;;;;10.75;3.33;;;14.60;90.10;;;;;;5045277;28;20040;-51
2022/10/24 04:19:34;;;;;;;8.57;2.67;;;14.50;89.90;;;;;;5032521;28;20029;-50
2022/10/24 04:22:04;;;;;;;11.52;3.95;;;14.50;89.90;;;;;;5030406;28;20100;-47
2022/10/24 04:24:31;;;;;;;;;;;14.60;89.60;;;;;;5031693;28;20120;-51
2022/10/24 04:26:58;;;;;;;8.23;3.20;;;14.70;89.30;;;;;;5032131;28;19963;-49
2022/10/24 04:29:25;;;;;;;8.43;2.50;;;14.70;89.10;;;;;;5047935;28;20029;-48
2022/10/24 04:31:51;;;;;;;8.82;2.83;;;14.70;88.90;;;;;;5031149;28;20018;-50
2022/10/24 04:34:18;;;;;;;6.13;2.80;;;14.70;89.00;;;;;;5030843;28;20037;-50
2022/10/24 04:36:45;;;;;;;5.25;2.63;;;14.70;88.90;;;;;;5031754;28;20037;-51
2022/10/24 04:39:11;;;;;;;10.13;3.10;;;14.70;88.80;;;;;;5031624;28;20033;-48
2022/10/24 04:41:37;;;;;;;9.70;3.08;;;14.80;88.60;;;;;;5045983;28;20413;-50
2022/10/24 04:44:04;;;;;;;12.82;3.15;;;14.70;88.50;;;;;;5029649;28;20052;-48
2022/10/24 04:46:32;;;;;;;6.22;3.25;;;14.70;88.60;;;;;;5010900;28;20475;-49
2022/10/24 04:48:57;;;;;;;8.23;3.00;;;14.70;88.70;;;;;;5045437;28;20469;-49
2022/10/24 04:51:25;;;;;;;7.47;3.72;;;14.80;88.50;;;;;;5050918;28;20117;-48
2022/10/24 04:53:51;;;;;;;7.00;2.97;;;14.80;88.40;;;;;;5050061;28;20060;-50
2022/10/24 04:56:17;;;;;;;10.95;3.08;;;14.80;88.40;;;;;;5050467;28;20025;-51
2022/10/24 04:58:45;;;;;;;5.50;2.90;;;14.70;88.50;;;;;;5050718;28;20438;-48
2022/10/24 05:01:14;;;;;;;6.90;3.25;;;14.80;88.40;;;;;;5032015;28;20041;-47
2022/10/24 05:03:41;;;;;;;8.23;3.33;;;14.80;88.40;;;;;;5051696;28;20021;-48
2022/10/24 05:06:08;;;;;;;7.85;3.33;;;14.80;88.20;;;;;;5049529;28;20024;-50
2022/10/24 05:08:39;;;;;;;5.30;2.78;;;14.90;88.10;;;;;;5050046;28;20033;-49
2022/10/24 05:11:04;;;;;;;10.80;3.55;;;14.90;87.80;;;;;;5048148;28;20055;-49
2022/10/24 05:13:31;;;;;;;8.05;2.83;;;14.90;87.60;;;;;;5046769;28;20426;-50
2022/10/24 05:15:58;;;;;;;12.68;2.95;;;15.00;87.70;;;;;;5030813;28;20032;-48
2022/10/24 05:18:28;;;;;;;8.02;2.83;;;14.90;87.50;;;;;;5051869;28;20082;-50
2022/10/24 05:20:57;;;;;;;6.28;3.58;;;15.00;87.30;;;;;;5053836;28;20174;-49
2022/10/24 05:23:25;;;;;;;5.78;2.70;;;15.00;87.20;;;;;;5055089;28;20366;-52
2022/10/24 05:25:52;;;;;;;7.57;2.70;;;15.10;86.70;;;;;;5052841;28;20040;-50
2022/10/24 05:28:18;;;;;;;10.68;3.90;;;15.10;86.50;;;;;;5054283;28;20064;-50
2022/10/24 05:30:45;;;;;;;6.03;2.55;;;15.10;86.40;;;;;;5052794;28;20025;-53
2022/10/24 05:33:12;;;;;;;7.63;2.50;;;15.00;86.50;;;;;;5052533;28;20025;-50
2022/10/24 05:35:40;;;;;;;9.55;3.38;;;15.00;86.70;;;;;;5028901;28;20032;-51
2022/10/24 05:38:07;;;;;;;5.30;3.15;;;15.00;86.50;;;;;;5051435;28;20048;-49
2022/10/24 05:40:34;;;;;;;10.73;2.33;;;15.00;86.10;;;;;;5036443;28;20017;-51
2022/10/24 05:43:01;;;;;;;7.95;2.55;;;15.00;86.20;;;;;;5051087;28;20078;-50
2022/10/24 05:45:28;;;;;;;7.70;2.10;;;14.90;86.30;;;;;;5054269;28;20021;-49
2022/10/24 05:47:55;;;;;;;9.68;2.60;;;14.90;86.10;;;;;;5052407;28;20094;-50
2022/10/24 05:50:25;;;;;;;10.55;2.40;;;14.90;86.20;;;;;;5052457;28;20047;-50
2022/10/24 05:52:52;;;;;;;9.00;3.33;;;14.80;86.20;;;;;;5052173;28;20021;-51
2022/10/24 05:55:20;;;;;;;11.38;2.65;;;14.80;86.30;;;;;;5052244;28;20020;-49
2022/10/24 05:57:47;;;;;;;8.98;3.10;;;14.60;86.60;;;;;;5054093;28;20449;-49
2022/10/24 06:00:15;;;;;;;8.23;2.50;;;14.60;86.70;;;;;;5015829;28;20351;-47
2022/10/24 06:02:42;;;;;;;10.52;3.58;;;14.60;86.80;;;;;;5041707;28;20025;-50
2022/10/24 06:05:10;;;;;;;7.07;2.67;;;14.50;86.60;;;;;;5051183;28;20041;-48
2022/10/24 06:07:37;;;;;;;6.63;3.70;;;14.50;86.70;;;;;;5040910;28;20124;-54
2022/10/24 06:10:06;;;;;;;11.35;3.15;;;14.50;86.40;;;;;;5048619;28;20077;-51
2022/10/24 06:12:34;;;;;;;7.03;3.22;;;14.50;86.40;;;;;;5048490;28;20467;-47
2022/10/24 06:15:05;;;;;;;14.45;2.78;;;14.50;86.40;;;;;;5055386;28;20470;-52
2022/10/24 06:17:31;;;;;;;5.97;2.47;;;14.50;86.00;;;;;;5053706;28;20035;-50
2022/10/24 06:19:58;;;;;;;6.57;2.58;;;14.50;85.90;;;;;;5034183;28;20024;-51
2022/10/24 06:22:26;;;;;;;8.70;2.83;;;14.50;85.90;;;;;;5051498;28;20086;-50
2022/10/24 06:24:53;;;;;;;9.98;2.50;;;14.50;85.80;;;;;;5047631;28;20020;-48
2022/10/24 06:27:20;;;;;;;9.63;2.88;;;14.40;86.00;;;;;;5052175;28;20025;-48
2022/10/24 06:29:47;;;;;;;8.32;2.67;;;14.40;86.10;;;;;;5019836;28;20091;-50
2022/10/24 06:32:13;;;;;;;14.98;2.85;;;14.40;86.00;;;;;;5051664;28;20035;-50
2022/10/24 06:34:42;;;;;;;10.23;2.75;;;14.40;86.00;;;;;;5053288;28;20025;-49
2022/10/24 06:37:10;;;;;;;7.55;3.17;;;14.40;86.10;;;;;;5053734;28;20036;-51
2022/10/24 06:39:37;;;;;;;11.60;2.58;;;14.40;86.10;;;;;;5053034;28;20343;-50
2022/10/24 06:42:03;;;;;;;8.73;2.38;;;14.40;86.00;;;;;;5051678;28;20112;-49
2022/10/24 06:44:30;;;;;;;7.97;2.80;;;14.40;86.00;;;;;;5053010;28;20025;-47
2022/10/24 06:47:02;;;;;;;5.90;2.40;;;14.40;85.70;;;;;;5054261;28;20439;-48
2022/10/24 06:49:28;;;;;;;8.68;3.63;;;14.50;85.40;;;;;;5051991;28;20056;-51
2022/10/24 06:51:56;;;;;;;7.05;2.67;;;14.40;85.60;;;;;;5052693;28;20029;-52
2022/10/24 06:54:21;;;;;;;6.05;2.30;;;14.50;85.60;;;;;;5052110;28;20035;-53
2022/10/24 06:56:47;;;;;;;9.13;3.47;;;14.50;85.60;;;;;;5047413;28;20037;-53
2022/10/24 06:59:19;;;;;;;9.02;2.33;;;14.50;85.60;;;;;;5037999;28;20025;-52
2022/10/24 07:01:46;;;;;;;7.32;2.53;;;14.50;85.70;;;;;;5044315;28;20036;-52
2022/10/24 07:04:13;;;;;;;11.43;2.55;;;14.50;85.60;;;;;;5049761;28;20114;-53
2022/10/24 07:06:39;;;;;;;5.57;2.42;;;14.50;85.70;;;;;;5043685;28;20458;-49
2022/10/24 07:09:08;;;;;;;4.78;2.58;;;14.50;85.70;;;;;;5035269;28;20048;-55
2022/10/24 07:11:37;;;;;;;7.47;2.33;;;14.40;85.80;;;;;;5053157;28;20037;-53
2022/10/24 07:14:06;;;;;;;6.25;2.15;;;14.40;85.90;;;;;;5035085;28;20445;-52
2022/10/24 07:16:37;;;;;;;8.93;2.60;;;14.40;85.70;;;;;;5047899;28;20368;-54
2022/10/24 07:19:05;;;;;;;8.15;2.22;;;14.50;85.50;;;;;;5030127;28;20041;-54
2022/10/24 07:21:32;;;;;;;9.98;3.00;;;14.60;85.50;;;;;;5048594;28;20103;-51
2022/10/24 07:24:00;;;;;;;9.95;2.22;;;14.60;85.30;;;;;;5058528;28;20441;-52
2022/10/24 07:26:28;;;;;;;8.85;2.58;;;14.80;85.20;;;;;;5055192;28;20035;-49
2022/10/24 07:28:57;;;;;;;10.93;3.10;;;14.80;84.90;;;;;;5030633;28;20036;-51
2022/10/24 07:31:28;;;;;;;4.78;2.28;;;14.90;84.80;;;;;;5030164;28;20037;-48
2022/10/24 07:33:55;;;;;;;4.97;1.92;;;14.90;84.80;;;;;;5047229;28;20036;-47
2022/10/24 07:36:26;;;;;;;8.20;2.63;;;14.90;84.70;;;;;;5041482;28;20040;-50
2022/10/24 07:38:55;;;;;;;15.18;2.88;;;14.90;84.50;;;;;;5032996;28;20029;-48
2022/10/24 07:41:24;;;;;;;6.57;2.40;;;15.00;84.20;;;;;;5040026;28;20446;-48
2022/10/24 07:43:54;;;;;;;5.90;1.88;;;15.00;84.00;;;;;;5030533;28;20548;-47
2022/10/24 07:46:22;;;;;;;7.30;2.00;;;15.10;83.90;;;;;;5035978;28;20029;-48
2022/10/24 07:48:50;;;;;;;8.48;3.05;;;15.20;83.60;;;;;;5044018;28;20482;-50
2022/10/24 07:51:18;;;;;;;9.18;2.15;;;15.30;83.40;;;;;;5039085;28;20343;-52
2022/10/24 07:53:45;;;;;;;7.38;2.03;;;15.40;83.50;;;;;;5030662;28;20055;-49
2022/10/24 07:56:15;;;;;;;7.30;2.58;;;15.40;83.10;;;;;;5048363;28;20040;-48
2022/10/24 07:58:43;;;;;;;5.80;2.60;;;15.40;83.10;;;;;;5049024;28;20361;-48
2022/10/24 08:01:14;;;;;;;5.53;2.00;;;15.50;82.80;;;;;;5045482;28;20061;-51
2022/10/24 08:03:41;;;;;;;7.97;2.20;;;15.50;82.50;;;;;;5049969;28;20092;-48
2022/10/24 08:06:14;;;;;;;6.57;2.38;;;15.60;82.80;;;;;;5046946;28;20024;-49
2022/10/24 08:08:44;;;;;;;8.65;2.58;;;15.60;82.80;;;;;;5047636;28;20391;-49
2022/10/24 08:11:14;;;;;;;6.22;2.05;;;15.60;82.60;;;;;;5046941;28;20119;-49
2022/10/24 08:13:41;;;;;;;8.02;2.20;;;15.60;82.50;;;;;;5050291;28;20358;-47
2022/10/24 08:16:11;;;;;;;6.88;1.90;;;15.70;82.00;;;;;;5032625;28;20765;-48
2022/10/24 08:18:38;;;;;;;8.38;3.40;;;15.80;82.10;;;;;;5049108;28;20119;-48
2022/10/24 08:21:07;;;;;;;9.07;2.55;;;15.90;81.80;;;;;;5042063;28;20037;-51
2022/10/24 08:23:38;;;;;;;10.43;2.20;;;15.90;81.70;;;;;;5041405;28;20025;-48
2022/10/24 08:26:07;;;;;;;9.02;2.53;;;16.00;81.20;;;;;;5040453;28;20025;-48
2022/10/24 08:28:32;;;;;;;6.75;2.15;;;16.20;80.80;;;;;;5032356;28;20070;-49
2022/10/24 08:31:08;;;;;;;4.38;1.88;;;16.40;79.80;;;;;;5048867;28;20111;-49
2022/10/24 08:33:34;;;;;;;8.98;2.47;;;16.60;79.30;;;;;;5046360;28;20033;-50
2022/10/24 08:36:05;;;;;;;9.90;2.08;;;16.60;79.10;;;;;;5044639;28;20107;-51
2022/10/24 08:38:32;;;;;;;7.80;2.55;;;16.60;78.90;;;;;;5034221;28;20033;-49
2022/10/24 08:40:59;;;;;;;3.92;1.83;;;16.60;79.20;;;;;;5051300;28;20406;-51
2022/10/24 08:43:26;;;;;;;5.63;2.35;;;16.50;79.30;;;;;;5066591;28;20044;-50
2022/10/24 08:46:12;;;;;;;5.57;2.00;;;16.50;78.70;;;;;;5043298;28;20477;-48
2022/10/24 08:48:52;;;;;;;7.47;2.00;;;16.50;78.70;;;;;;5028411;28;20058;-51
2022/10/24 08:52:06;;;;;;;10.75;2.63;;;16.50;78.90;;;;;;5026807;28;20071;-51
2022/10/24 08:54:38;;;;;;;8.45;1.73;;;16.60;79.00;;;;;;5019384;28;20133;-54
2022/10/24 08:57:06;;;;;;;7.10;1.77;;;16.60;79.10;;;;;;5024016;28;20025;-50
2022/10/24 08:59:39;;;;;;;6.60;1.73;;;16.70;79.10;;;;;;5035100;28;20029;-51
2022/10/24 09:02:24;;;;;;;6.47;2.38;;;16.70;78.70;;;;;;5033727;28;20034;-53
2022/10/24 09:05:18;;;;;;;3.95;1.70;;;16.90;79.00;;;;;;5016711;28;20767;-53
2022/10/24 09:07:46;;;;;;;6.72;1.20;;;17.40;78.20;;;;;;5019188;28;20030;-51
2022/10/24 09:10:53;;;;;;;5.47;2.33;;;17.60;77.20;;;;;;5023021;28;20086;-51
2022/10/24 09:13:22;;;;;;;12.00;1.95;;;17.60;77.00;;;;;;5031441;28;20025;-50
2022/10/24 09:15:50;;;;;;;6.10;1.65;;;17.40;75.20;;;;;;5030713;28;20054;-53
2022/10/24 09:18:42;;;;;;;9.73;1.50;;;17.40;75.90;;;;;;5022287;28;20458;-53
2022/10/24 09:21:12;;;;;;;4.05;1.98;;;17.40;75.90;;;;;;5021115;28;20053;-54
2022/10/24 09:23:39;;;;;;;7.53;2.33;;;17.50;75.70;;;;;;5050619;28;20044;-52
2022/10/24 09:26:16;;;;;;;8.23;1.75;;;17.40;75.70;;;;;;5029166;28;20026;-50
2022/10/24 09:28:44;;;;;;;7.75;1.83;;;17.40;75.70;;;;;;5024466;28;20022;-53
2022/10/24 09:31:19;;;;;;;9.10;2.17;;;17.40;76.00;;;;;;5032097;28;20076;-51
2022/10/24 09:33:47;;;;;;;6.13;1.80;;;17.40;75.70;;;;;;5023749;28;20363;-54
2022/10/24 09:36:18;;;;;;;5.15;1.60;;;17.30;76.20;;;;;;5028069;28;20033;-50
2022/10/24 09:38:48;;;;;;;4.85;1.50;;;17.30;76.10;;;;;;5023909;28;20573;-51
2022/10/24 09:41:28;;;;;;;8.52;2.00;;;17.30;76.20;;;;;;5015056;28;20033;-54
2022/10/24 09:43:59;;;;;;;;;;;17.30;76.10;;;;;;5028563;28;20033;-50
2022/10/24 09:46:38;;;;;;;12.10;1.77;;;17.30;75.70;;;;;;5032651;28;19921;-48
2022/10/24 09:49:21;;;;;;;4.97;1.47;;;17.20;76.00;;;;;;5034746;28;20352;-51
2022/10/24 09:52:14;;;;;;;6.45;2.25;;;17.20;76.40;;;;;;5025564;28;20061;-49
2022/10/24 09:54:42;;;;;;;6.00;1.65;;;17.20;76.60;;;;;;5014225;28;20067;-49
2022/10/24 09:57:36;;;;;;;9.32;2.05;;;17.20;77.00;;;;;;5028153;28;20136;-53
2022/10/24 10:00:18;;;;;;;9.13;1.77;;;17.10;77.00;;;;;;5028925;28;20052;-52
2022/10/24 10:03:16;;;;;;;5.40;1.65;;;17.10;76.50;;;;;;5033427;28;20049;-52
2022/10/24 10:05:48;;;;;;;11.25;2.65;;;17.00;76.80;;;;;;5029310;28;20072;-55
2022/10/24 10:08:24;;;;;;;7.63;2.92;;;17.00;77.30;;;;;;5021532;28;20037;-52
2022/10/24 10:11:08;;;;;;;4.85;1.33;;;17.00;76.60;;;;;;5029271;28;20036;-51
2022/10/24 10:13:55;;;;;;;9.23;1.73;;;17.10;76.90;;;;;;5012854;28;20026;-48
2022/10/24 10:16:38;;;;;;;9.65;1.85;;;17.20;75.70;;;;;;5028299;28;20096;-51
2022/10/24 10:19:22;;;;;;;7.25;1.52;;;17.30;75.50;;;;;;5030598;28;20087;-53
2022/10/24 10:22:20;;;;;;;6.88;1.70;;;17.40;75.70;;;;;;5029180;28;20160;-49
2022/10/24 10:24:48;;;;;;;8.80;1.98;;;17.60;75.80;;;;;;5031586;28;20034;-51
2022/10/24 10:27:31;;;;;;;8.85;1.65;;;17.80;74.90;;;;;;5027442;28;20486;-49
2022/10/24 10:30:18;;;;;;;6.75;1.60;;;17.80;73.90;;;;;;5027207;28;20030;-48
2022/10/24 10:33:21;;;;;;;9.85;1.58;;;17.70;74.00;;;;;;5031485;28;20567;-49
2022/10/24 10:36:08;;;;;;;5.75;2.00;;;17.60;74.60;;;;;;5029461;28;20026;-53
2022/10/24 10:39:11;;;;;;;5.75;2.13;;;17.60;74.90;;;;;;5016973;28;20041;-55
2022/10/24 10:42:02;;;;;;;6.68;1.77;;;17.60;75.10;;;;;;5031465;28;20033;-48
2022/10/24 10:44:36;;;;;;;9.77;2.42;;;17.50;74.60;;;;;;5023024;28;20025;-51
2022/10/24 10:47:36;;;;;;;5.88;1.38;;;17.50;74.80;;;;;;5032096;28;20039;-52
2022/10/24 10:50:42;;;;;;;6.63;1.60;;;17.60;75.20;;;;;;5053894;28;20094;-53
2022/10/24 10:53:32;;;;;;;6.35;2.35;;;17.70;74.00;;;;;;5040104;28;20107;-51
2022/10/24 10:56:20;;;;;;;7.72;1.65;;;17.60;74.20;;;;;;5010844;28;20099;-51
2022/10/24 10:59:09;;;;;;;7.10;2.28;;;17.50;74.50;;;;;;5047898;28;20087;-51
2022/10/24 11:02:12;;;;;;;7.28;1.58;;;17.50;75.40;;;;;;5051225;28;20017;-53
2022/10/24 11:05:15;;;;;;;10.23;2.38;;;17.40;75.10;;;;;;5043086;28;20037;-49
2022/10/24 11:07:54;;;;;;;14.00;1.83;;;17.40;74.60;;;;;;5038258;28;20358;-49
2022/10/24 11:10:30;;;;;;;12.85;1.50;;;17.40;74.80;;;;;;5041330;28;20861;-50
2022/10/24 11:13:02;;;;;;;7.82;1.63;;;17.40;75.20;;;;;;5017087;28;20038;-54
2022/10/24 11:15:39;;;;;;;4.90;0.93;;;17.60;73.90;;;;;;5033983;28;20144;-50
2022/10/24 11:18:41;;;;;;;5.72;1.45;;;17.60;73.50;;;;;;5025189;28;20547;-55
2022/10/24 11:21:12;;;;;;;6.85;2.55;;;17.50;74.10;;;;;;5035590;28;20429;-53
2022/10/24 11:24:00;;;;;;;6.25;1.80;;;17.60;75.00;;;;;;5029967;28;20029;-54
2022/10/24 11:26:46;;;;;;;4.80;1.77;;;17.60;74.30;;;;;;5034413;28;20024;-51
2022/10/24 11:29:21;;;;;;;4.97;1.35;;;17.60;74.90;;;;;;5047977;28;20469;-49
2022/10/24 11:32:16;;;;;;;8.57;1.48;;;17.70;74.70;;;;;;5056025;28;20110;-50
2022/10/24 11:34:51;;;;;;;5.63;1.58;;;17.60;73.90;;;;;;5040118;28;20127;-49
2022/10/24 11:37:39;;;;;;;4.38;1.45;;;17.60;73.50;;;;;;5045629;28;20029;-49
2022/10/24 11:40:16;;;;;;;7.78;1.50;;;17.60;73.80;;;;;;5024060;28;20029;-48
2022/10/24 11:43:06;;;;;;;6.18;1.33;;;17.60;73.20;;;;;;5029460;28;20037;-54
2022/10/24 11:45:39;;;;;;;;;;;17.60;73.50;;;;;;5028175;28;20033;-50
2022/10/24 11:48:36;;;;;;;5.53;1.10;;;17.50;73.40;;;;;;5030054;28;19920;-49
2022/10/24 11:51:05;;;;;;;9.68;2.50;;;17.60;74.20;;;;;;5028721;28;20027;-47
2022/10/24 11:53:33;;;;;;;3.55;1.25;;;17.90;73.70;;;;;;5025581;28;20342;-48
2022/10/24 11:56:22;;;;;;;7.72;2.00;;;18.20;72.60;;;;;;5030337;28;20029;-49
2022/10/24 11:59:11;;;;;;;8.98;1.73;;;18.30;71.40;;;;;;5046028;28;20025;-52
2022/10/24 12:01:54;;;;;;;8.77;1.98;;;18.10;70.80;;;;;;5031997;28;20040;-53
2022/10/24 12:04:39;;;;;;;7.18;2.08;;;17.90;71.70;;;;;;5030845;28;20163;-49
2022/10/24 12:07:32;;;;;;;7.75;1.58;;;17.80;72.20;;;;;;5045137;28;20061;-50
2022/10/24 12:10:37;;;;;;;5.85;1.50;;;17.70;72.40;;;;;;5045095;28;20366;-51
2022/10/24 12:13:27;;;;;;;5.53;1.50;;;17.70;72.60;;;;;;5009044;28;20065;-50
2022/10/24 12:16:08;;;;;;;5.35;1.65;;;17.90;72.30;;;;;;5029022;28;20488;-53
2022/10/24 12:18:40;;;;;;;7.60;1.55;;;18.00;71.70;;;;;;5029334;28;20022;-48
2022/10/24 12:21:10;;;;;;;7.18;2.08;;;18.20;72.20;;;;;;5030898;28;20029;-52
2022/10/24 12:23:40;;;;;;;6.38;1.48;;;18.30;71.80;;;;;;5017429;28;20466;-49
2022/10/24 12:26:31;;;;;;;7.15;1.55;;;18.20;71.20;;;;;;5030453;28;20026;-48
2022/10/24 12:29:00;;;;;;;3.80;1.00;;;18.00;71.00;;;;;;5022742;28;20021;-48
2022/10/24 12:31:32;;;;;;;5.22;1.30;;;17.90;71.60;;;;;;5029327;28;20021;-51
2022/10/24 12:34:21;;;;;;;8.32;1.45;;;17.80;71.90;;;;;;5025550;28;20033;-48
2022/10/24 12:37:13;;;;;;;2.60;0.70;;;17.80;71.70;;;;;;5027893;28;20081;-53
2022/10/24 12:39:44;;;;;;;10.95;1.55;;;17.80;71.70;;;;;;5026245;28;20037;-53
2022/10/24 12:42:37;;;;;;;8.23;1.55;;;17.60;71.30;;;;;;5028253;28;20529;-49
2022/10/24 12:45:14;;;;;;;7.43;2.00;;;17.60;72.10;;;;;;5013778;28;20401;-53
2022/10/24 12:47:58;;;;;;;3.75;1.00;;;17.50;72.60;;;;;;5030848;28;20044;-50
2022/10/24 12:50:28;;;;;;;6.25;1.17;;;17.40;72.90;;;;;;5025992;28;20044;-51
2022/10/24 12:53:02;;;;;;;4.15;0.75;;;17.40;71.80;;;;;;5032027;28;20462;-48
2022/10/24 12:55:47;;;;;;;5.50;1.08;;;17.40;72.80;;;;;;5011426;28;20113;-48
2022/10/24 12:58:41;;;;;;;4.85;0.93;;;17.30;73.50;;;;;;5015987;28;20491;-53
2022/10/24 13:01:32;;;;;;;5.65;0.98;;;17.20;73.20;;;;;;5029895;28;20113;-50
2022/10/24 13:04:17;;;;;;;7.55;1.88;;;17.30;73.10;;;;;;5032909;28;20033;-51
2022/10/24 13:07:20;;;;;;;10.77;1.15;;;17.40;72.50;;;;;;5015550;28;20109;-50
2022/10/24 13:10:21;;;;;;;17.95;1.35;;;17.40;72.80;;;;;;5026361;28;20029;-49
2022/10/24 13:13:11;;;;;;;6.45;1.00;;;17.30;72.50;;;;;;5020828;28;20105;-48
2022/10/24 13:16:17;;;;;;;4.72;1.10;;;17.30;72.60;;;;;;5025852;28;20398;-52
2022/10/24 13:19:23;;;;;;;4.32;0.85;;;17.20;73.20;;;;;;4988332;28;20053;-51
2022/10/24 13:22:27;;;;;;;4.22;1.15;;;17.20;72.70;;;;;;5014807;28;20083;-52